Danmark — OXDK — position and weather

sailwx.info

Track history (hours):
 
Tides and Currents Weather Stations Pressure Air Temp Water Temp Dewpoint Dewpoint Depression Visibility Wind Speed Wind Dir Waves Ship Positions

Danmark (Denmark)

Last reported at 2020-Jun-21 17:30 UTC. Time now 2020-Jul-02 16:40 UTC.
Position N 58°47' W 003°37'.
Warning: this ship's position is 10 days out of date.

Length 60 m; beam 10 m; draft 5 m.

Type: Sailing vessel. MMSI: 219500000.

Date/timePositionNaut miles runAvg speedWind from/ knotsBaromVisibWave heightAir tempDewpointWater temp
2020-Jun-21 17:30N 58°47' W 003°37'3 5.5
2020-Jun-21 17:00N 58°46' W 003°33'17 6.7
2020-Jun-21 14:30N 58°41' W 003°02'17 6.6
2020-Jun-21 11:58N 58°30' W 002°38'19 6.7
2020-Jun-21 09:09N 58°12' W 002°26'46 3.1
2020-Jun-20 18:22N 57°35' W 001°36'19 6.6
2020-Jun-20 15:29N 57°19' W 001°16'3 2.1
2020-Jun-20 13:48N 57°17' W 001°11'1 1.6
2020-Jun-20 13:29N 57°16' W 001°11'142 3.6
2020-Jun-18 22:00N 55°59' E 002°26'2 4.7
2020-Jun-18 21:30N 55°58' E 002°29'10 5.1
2020-Jun-18 19:30N 55°53' E 002°45'8 5.2
2020-Jun-18 18:01N 55°49' E 002°56'6 5.2
2020-Jun-18 16:50N 55°45' E 003°06'8 5.8
2020-Jun-18 15:30N 55°42' E 003°18'3 5.5
2020-Jun-18 15:00N 55°41' E 003°22'9 5.9
2020-Jun-18 13:30N 55°38' E 003°37'14 6.9
2020-Jun-18 11:30N 55°34' E 004°00'4 7.5
2020-Jun-18 11:00N 55°33' E 004°07'4 7.3
2020-Jun-18 10:30N 55°32' E 004°13'21 5.2
2020-Jun-18 06:30N 55°29' E 004°50'11 5.7
2020-Jun-18 04:30N 55°40' E 004°46'9 4.4
2020-Jun-18 02:30N 55°48' E 004°37'3 2.6
2020-Jun-18 01:30N 55°50' E 004°39'7 2.4
2020-Jun-17 22:30N 55°56' E 004°46'9 3.5
2020-Jun-17 19:59N 56°02' E 004°58'2 4.0
2020-Jun-17 19:30N 56°03' E 005°00'2 3.6
2020-Jun-17 19:00N 56°04' E 005°03'1 2.0
2020-Jun-17 18:30N 56°04' E 005°04'0 0.4
2020-Jun-17 17:30N 56°05' E 005°05'1 0.3
2020-Jun-17 15:00N 56°05' E 005°04'1 1.0
2020-Jun-17 14:30N 56°06' E 005°05'2 1.3
2020-Jun-17 13:00N 56°08' E 005°06'2 1.3
2020-Jun-17 11:30N 56°09' E 005°04'1 1.4
2020-Jun-17 10:30N 56°11' E 005°03'1 2.2
2020-Jun-17 10:00N 56°12' E 005°02'5 1.1
2020-Jun-17 05:00N 56°17' E 004°59'1 1.8
2020-Jun-17 04:30N 56°18' E 004°59'3 2.3
2020-Jun-17 03:00N 56°21' E 004°59'1 2.1
2020-Jun-17 02:30N 56°22' E 004°59'1 1.2
2020-Jun-17 02:00N 56°23' E 004°59'2 0.8
2020-Jun-16 23:30N 56°25' E 004°59'15 2.2
2020-Jun-16 16:30N 56°40' E 005°01'12 3.3
2020-Jun-16 13:00N 56°50' E 005°14'4 2.1
2020-Jun-16 11:00N 56°52' E 005°20'1 1.8
2020-Jun-16 10:31N 56°53' E 005°21'20 2.9
2020-Jun-16 03:31N 57°08' E 005°45'3 2.7
2020-Jun-16 02:30N 57°10' E 005°48'3 3.4
2020-Jun-16 01:30N 57°11' E 005°54'2 4.4
2020-Jun-16 01:01N 57°12' E 005°58'9 4.4
2020-Jun-15 23:01N 57°14' E 006°14'3 3.3
2020-Jun-15 22:00N 57°14' E 006°20'16 2.9
2020-Jun-15 16:30N 57°14' E 006°50'8 4.3
2020-Jun-15 14:30N 57°17' E 007°05'2 4.4
2020-Jun-15 14:00N 57°18' E 007°09'3 4.9
2020-Jun-15 13:30N 57°19' E 007°13'2 4.6
2020-Jun-15 13:00N 57°20' E 007°17'4 4.3
2020-Jun-15 12:00N 57°21' E 007°24'6 4.0
2020-Jun-15 10:30N 57°23' E 007°35'5 3.3
2020-Jun-15 09:00N 57°26' E 007°42'5 3.1
2020-Jun-15 07:31N 57°30' E 007°48'4 2.8
2020-Jun-15 06:01N 57°33' E 007°52'10 2.0
2020-Jun-15 01:00N 57°40' E 008°07'2 3.6
2020-Jun-15 00:30N 57°41' E 008°09'12 3.6
2020-Jun-14 21:00N 57°51' E 008°21'6 4.0
2020-Jun-14 19:31N 57°56' E 008°28'11 4.3
2020-Jun-14 17:00N 58°03' E 008°43'6 4.3
2020-Jun-14 15:30N 58°08' E 008°52'8 4.0
2020-Jun-14 13:31N 58°14' E 009°02'4 4.4
2020-Jun-14 12:30N 58°17' E 009°08'4 4.5
2020-Jun-14 11:30N 58°19' E 009°15'3 5.4
2020-Jun-14 11:00N 58°20' E 009°20'10 6.9
2020-Jun-14 09:30N 58°20' E 009°40'6 6.3
2020-Jun-14 08:30N 58°20' E 009°52'6 6.0
2020-Jun-14 07:31N 58°19' E 010°03'22 5.5
2020-Jun-14 03:30N 58°10' E 010°41'7 6.7
2020-Jun-14 02:31N 58°05' E 010°50'3 6.2
2020-Jun-14 02:00N 58°03' E 010°53'6 6.3
2020-Jun-14 01:01N 57°57' E 010°57'19 7.5
2020-Jun-13 22:30N 57°38' E 010°57'8 3.3
2020-Jun-13 20:00N 57°30' E 010°55'2 1.0
2020-Jun-13 18:01N 57°30' E 010°59'0 0.5
2020-Jun-13 17:31N 57°30' E 010°59'3 1.1
2020-Jun-13 14:30N 57°33' E 011°02'0 0.5
2020-Jun-13 13:31N 57°33' E 011°03'2 0.9
2020-Jun-13 11:00N 57°31' E 011°04'3 5.4
2020-Jun-13 10:30N 57°31' E 010°59'15 4.3
2020-Jun-13 06:58N 57°26' E 010°32'0 0.0
2020-Jun-13 06:28N 57°26' E 010°32'0 0.0
2020-Jun-13 04:19N 57°26' E 010°32'0 0.0
2020-Jun-13 02:13N 57°26' E 010°32'0 0.0
2020-Jun-13 00:55N 57°26' E 010°32'0 0.0
2020-Jun-12 23:49N 57°26' E 010°32'0 0.0
2020-Jun-12 22:49N 57°26' E 010°32'0 0.0
2020-Jun-12 21:55N 57°26' E 010°32'0 0.0
2020-Jun-12 21:25N 57°26' E 010°32'0 0.0
2020-Jun-12 20:19N 57°26' E 010°32'0 0.0
2020-Jun-12 18:25N 57°26' E 010°32'0 0.0
2020-Jun-12 15:55N 57°26' E 010°32'0 0.0
2020-Jun-12 15:25N 57°26' E 010°32'0 0.0
2020-Jun-12 09:55N 57°26' E 010°32'0 0.0
2020-Jun-12 09:13N 57°26' E 010°32'0 0.0
2020-Jun-12 05:49N 57°26' E 010°32'0 0.0
2020-Jun-12 05:25N 57°26' E 010°32'0 0.0
2020-Jun-12 02:55N 57°26' E 010°32'0 0.0
2020-Jun-12 02:22N 57°26' E 010°32'0 0.0
2020-Jun-12 00:55N 57°26' E 010°32'0 0.0
2020-Jun-12 00:19N 57°26' E 010°32'0 0.0
2020-Jun-11 22:55N 57°26' E 010°32'0 0.0
2020-Jun-11 21:55N 57°26' E 010°32'0 0.0
2020-Jun-11 20:55N 57°26' E 010°32'0 0.0
2020-Jun-11 19:25N 57°26' E 010°32'0 0.0
2020-Jun-11 18:55N 57°26' E 010°32'0 0.0
2020-Jun-11 18:25N 57°26' E 010°32'0 0.0
2020-Jun-11 17:55N 57°26' E 010°32'  
Track history (hours):
 
Tides and Currents Weather Stations Pressure Air Temp Water Temp Dewpoint Dewpoint Depression Visibility Wind Speed Wind Dir Waves Ship Positions

Danmark (Denmark)

Last reported at 2020-Jun-21 17:30 UTC. Time now 2020-Jul-02 16:40 UTC.
Position N 58°47' W 003°37'.
Warning: this ship's position is 10 days out of date.

Length 60 m; beam 10 m; draft 5 m.

Type: Sailing vessel. MMSI: 219500000.

Date/timePositionNaut miles runAvg speedWind from/ knotsBaromVisibWave heightAir tempDewpointWater temp
2020-Jun-21 17:30N 58°47' W 003°37'3 5.5
2020-Jun-21 17:00N 58°46' W 003°33'17 6.7
2020-Jun-21 14:30N 58°41' W 003°02'17 6.6
2020-Jun-21 11:58N 58°30' W 002°38'19 6.7
2020-Jun-21 09:09N 58°12' W 002°26'46 3.1
2020-Jun-20 18:22N 57°35' W 001°36'19 6.6
2020-Jun-20 15:29N 57°19' W 001°16'3 2.1
2020-Jun-20 13:48N 57°17' W 001°11'1 1.6
2020-Jun-20 13:29N 57°16' W 001°11'142 3.6
2020-Jun-18 22:00N 55°59' E 002°26'2 4.7
2020-Jun-18 21:30N 55°58' E 002°29'10 5.1
2020-Jun-18 19:30N 55°53' E 002°45'8 5.2
2020-Jun-18 18:01N 55°49' E 002°56'6 5.2
2020-Jun-18 16:50N 55°45' E 003°06'8 5.8
2020-Jun-18 15:30N 55°42' E 003°18'3 5.5
2020-Jun-18 15:00N 55°41' E 003°22'9 5.9
2020-Jun-18 13:30N 55°38' E 003°37'14 6.9
2020-Jun-18 11:30N 55°34' E 004°00'4 7.5
2020-Jun-18 11:00N 55°33' E 004°07'4 7.3
2020-Jun-18 10:30N 55°32' E 004°13'21 5.2
2020-Jun-18 06:30N 55°29' E 004°50'11 5.7
2020-Jun-18 04:30N 55°40' E 004°46'9 4.4
2020-Jun-18 02:30N 55°48' E 004°37'3 2.6
2020-Jun-18 01:30N 55°50' E 004°39'7 2.4
2020-Jun-17 22:30N 55°56' E 004°46'9 3.5
2020-Jun-17 19:59N 56°02' E 004°58'2 4.0
2020-Jun-17 19:30N 56°03' E 005°00'2 3.6
2020-Jun-17 19:00N 56°04' E 005°03'1 2.0
2020-Jun-17 18:30N 56°04' E 005°04'0 0.4
2020-Jun-17 17:30N 56°05' E 005°05'1 0.3
2020-Jun-17 15:00N 56°05' E 005°04'1 1.0
2020-Jun-17 14:30N 56°06' E 005°05'2 1.3
2020-Jun-17 13:00N 56°08' E 005°06'2 1.3
2020-Jun-17 11:30N 56°09' E 005°04'1 1.4
2020-Jun-17 10:30N 56°11' E 005°03'1 2.2
2020-Jun-17 10:00N 56°12' E 005°02'5 1.1
2020-Jun-17 05:00N 56°17' E 004°59'1 1.8
2020-Jun-17 04:30N 56°18' E 004°59'3 2.3
2020-Jun-17 03:00N 56°21' E 004°59'1 2.1
2020-Jun-17 02:30N 56°22' E 004°59'1 1.2
2020-Jun-17 02:00N 56°23' E 004°59'2 0.8
2020-Jun-16 23:30N 56°25' E 004°59'15 2.2
2020-Jun-16 16:30N 56°40' E 005°01'12 3.3
2020-Jun-16 13:00N 56°50' E 005°14'4 2.1
2020-Jun-16 11:00N 56°52' E 005°20'1 1.8
2020-Jun-16 10:31N 56°53' E 005°21'20 2.9
2020-Jun-16 03:31N 57°08' E 005°45'3 2.7
2020-Jun-16 02:30N 57°10' E 005°48'3 3.4
2020-Jun-16 01:30N 57°11' E 005°54'2 4.4
2020-Jun-16 01:01N 57°12' E 005°58'9 4.4
2020-Jun-15 23:01N 57°14' E 006°14'3 3.3
2020-Jun-15 22:00N 57°14' E 006°20'16 2.9
2020-Jun-15 16:30N 57°14' E 006°50'8 4.3
2020-Jun-15 14:30N 57°17' E 007°05'2 4.4
2020-Jun-15 14:00N 57°18' E 007°09'3 4.9
2020-Jun-15 13:30N 57°19' E 007°13'2 4.6
2020-Jun-15 13:00N 57°20' E 007°17'4 4.3
2020-Jun-15 12:00N 57°21' E 007°24'6 4.0
2020-Jun-15 10:30N 57°23' E 007°35'5 3.3
2020-Jun-15 09:00N 57°26' E 007°42'5 3.1
2020-Jun-15 07:31N 57°30' E 007°48'4 2.8
2020-Jun-15 06:01N 57°33' E 007°52'10 2.0
2020-Jun-15 01:00N 57°40' E 008°07'2 3.6
2020-Jun-15 00:30N 57°41' E 008°09'12 3.6
2020-Jun-14 21:00N 57°51' E 008°21'6 4.0
2020-Jun-14 19:31N 57°56' E 008°28'11 4.3
2020-Jun-14 17:00N 58°03' E 008°43'6 4.3
2020-Jun-14 15:30N 58°08' E 008°52'8 4.0
2020-Jun-14 13:31N 58°14' E 009°02'4 4.4
2020-Jun-14 12:30N 58°17' E 009°08'4 4.5
2020-Jun-14 11:30N 58°19' E 009°15'3 5.4
2020-Jun-14 11:00N 58°20' E 009°20'10 6.9
2020-Jun-14 09:30N 58°20' E 009°40'6 6.3
2020-Jun-14 08:30N 58°20' E 009°52'6 6.0
2020-Jun-14 07:31N 58°19' E 010°03'22 5.5
2020-Jun-14 03:30N 58°10' E 010°41'7 6.7
2020-Jun-14 02:31N 58°05' E 010°50'3 6.2
2020-Jun-14 02:00N 58°03' E 010°53'6 6.3
2020-Jun-14 01:01N 57°57' E 010°57'19 7.5
2020-Jun-13 22:30N 57°38' E 010°57'8 3.3
2020-Jun-13 20:00N 57°30' E 010°55'2 1.0
2020-Jun-13 18:01N 57°30' E 010°59'0 0.5
2020-Jun-13 17:31N 57°30' E 010°59'3 1.1
2020-Jun-13 14:30N 57°33' E 011°02'0 0.5
2020-Jun-13 13:31N 57°33' E 011°03'2 0.9
2020-Jun-13 11:00N 57°31' E 011°04'3 5.4
2020-Jun-13 10:30N 57°31' E 010°59'15 4.3
2020-Jun-13 06:58N 57°26' E 010°32'0 0.0
2020-Jun-13 06:28N 57°26' E 010°32'0 0.0
2020-Jun-13 04:19N 57°26' E 010°32'0 0.0
2020-Jun-13 02:13N 57°26' E 010°32'0 0.0
2020-Jun-13 00:55N 57°26' E 010°32'0 0.0
2020-Jun-12 23:49N 57°26' E 010°32'0 0.0
2020-Jun-12 22:49N 57°26' E 010°32'0 0.0
2020-Jun-12 21:55N 57°26' E 010°32'0 0.0
2020-Jun-12 21:25N 57°26' E 010°32'0 0.0
2020-Jun-12 20:19N 57°26' E 010°32'0 0.0
2020-Jun-12 18:25N 57°26' E 010°32'0 0.0
2020-Jun-12 15:55N 57°26' E 010°32'0 0.0
2020-Jun-12 15:25N 57°26' E 010°32'0 0.0
2020-Jun-12 09:55N 57°26' E 010°32'0 0.0
2020-Jun-12 09:13N 57°26' E 010°32'0 0.0
2020-Jun-12 05:49N 57°26' E 010°32'0 0.0
2020-Jun-12 05:25N 57°26' E 010°32'0 0.0
2020-Jun-12 02:55N 57°26' E 010°32'0 0.0
2020-Jun-12 02:22N 57°26' E 010°32'0 0.0
2020-Jun-12 00:55N 57°26' E 010°32'0 0.0
2020-Jun-12 00:19N 57°26' E 010°32'0 0.0
2020-Jun-11 22:55N 57°26' E 010°32'0 0.0
2020-Jun-11 21:55N 57°26' E 010°32'0 0.0
2020-Jun-11 20:55N 57°26' E 010°32'0 0.0
2020-Jun-11 19:25N 57°26' E 010°32'0 0.0
2020-Jun-11 18:55N 57°26' E 010°32'0 0.0
2020-Jun-11 18:25N 57°26' E 010°32'0 0.0
2020-Jun-11 17:55N 57°26' E 010°32'  

Dump ship's entire track history